sensor_id;sensor_type;location;lat;lon;timestamp;temperature;humidity
13848;DHT22;6994;49.752;6.094;2023-03-05T00:01:48;6.10;99.90
13848;DHT22;6994;49.752;6.094;2023-03-05T00:04:16;6.00;99.90
13848;DHT22;6994;49.752;6.094;2023-03-05T00:06:43;5.90;99.90
13848;DHT22;6994;49.752;6.094;2023-03-05T00:09:10;5.90;99.90
13848;DHT22;6994;49.752;6.094;2023-03-05T00:11:37;6.10;99.90
13848;DHT22;6994;49.752;6.094;2023-03-05T00:14:05;6.10;99.90
13848;DHT22;6994;49.752;6.094;2023-03-05T00:16:32;6.00;99.90
13848;DHT22;6994;49.752;6.094;2023-03-05T00:18:59;5.90;99.90
13848;DHT22;6994;49.752;6.094;2023-03-05T00:21:27;5.90;99.90
13848;DHT22;6994;49.752;6.094;2023-03-05T00:23:53;6.10;99.90
13848;DHT22;6994;49.752;6.094;2023-03-05T00:26:21;6.10;99.90
13848;DHT22;6994;49.752;6.094;2023-03-05T00:28:48;6.10;99.90
13848;DHT22;6994;49.752;6.094;2023-03-05T00:31:17;6.00;99.90
13848;DHT22;6994;49.752;6.094;2023-03-05T00:33:44;5.90;99.90
13848;DHT22;6994;49.752;6.094;2023-03-05T00:36:12;5.80;99.90
13848;DHT22;6994;49.752;6.094;2023-03-05T00:38:40;5.80;99.90
13848;DHT22;6994;49.752;6.094;2023-03-05T00:41:07;5.80;99.90
13848;DHT22;6994;49.752;6.094;2023-03-05T00:43:34;5.80;99.90
13848;DHT22;6994;49.752;6.094;2023-03-05T00:46:01;5.70;99.90
13848;DHT22;6994;49.752;6.094;2023-03-05T00:48:28;5.70;99.90
13848;DHT22;6994;49.752;6.094;2023-03-05T00:50:56;5.80;99.90
13848;DHT22;6994;49.752;6.094;2023-03-05T00:53:23;5.90;99.90
13848;DHT22;6994;49.752;6.094;2023-03-05T00:55:50;5.90;99.90
13848;DHT22;6994;49.752;6.094;2023-03-05T00:58:17;5.80;99.90
13848;DHT22;6994;49.752;6.094;2023-03-05T01:00:44;5.80;99.90
13848;DHT22;6994;49.752;6.094;2023-03-05T01:03:12;5.70;99.90
13848;DHT22;6994;49.752;6.094;2023-03-05T01:05:39;5.70;99.90
13848;DHT22;6994;49.752;6.094;2023-03-05T01:08:06;5.60;99.90
13848;DHT22;6994;49.752;6.094;2023-03-05T01:10:33;5.60;99.90
13848;DHT22;6994;49.752;6.094;2023-03-05T01:13:00;5.50;99.90
13848;DHT22;6994;49.752;6.094;2023-03-05T01:15:28;5.50;99.90
13848;DHT22;6994;49.752;6.094;2023-03-05T01:17:55;5.60;99.90
13848;DHT22;6994;49.752;6.094;2023-03-05T01:20:22;5.70;99.90
13848;DHT22;6994;49.752;6.094;2023-03-05T01:22:50;5.50;99.90
13848;DHT22;6994;49.752;6.094;2023-03-05T01:25:17;5.50;99.90
13848;DHT22;6994;49.752;6.094;2023-03-05T01:27:44;5.40;99.90
13848;DHT22;6994;49.752;6.094;2023-03-05T01:30:12;5.40;99.90
13848;DHT22;6994;49.752;6.094;2023-03-05T01:32:39;5.60;99.90
13848;DHT22;6994;49.752;6.094;2023-03-05T01:35:07;5.60;99.90
13848;DHT22;6994;49.752;6.094;2023-03-05T01:37:34;5.60;99.90
13848;DHT22;6994;49.752;6.094;2023-03-05T01:40:02;5.50;99.90
13848;DHT22;6994;49.752;6.094;2023-03-05T01:42:29;5.50;99.90
13848;DHT22;6994;49.752;6.094;2023-03-05T01:45:08;5.50;99.90
13848;DHT22;6994;49.752;6.094;2023-03-05T01:47:33;5.60;99.90
13848;DHT22;6994;49.752;6.094;2023-03-05T01:50:01;5.60;99.90
13848;DHT22;6994;49.752;6.094;2023-03-05T01:52:28;5.70;99.90
13848;DHT22;6994;49.752;6.094;2023-03-05T01:54:56;5.60;99.90
13848;DHT22;6994;49.752;6.094;2023-03-05T01:57:27;5.90;99.90
13848;DHT22;6994;49.752;6.094;2023-03-05T01:59:50;5.80;99.90
13848;DHT22;6994;49.752;6.094;2023-03-05T02:02:17;6.00;99.90
13848;DHT22;6994;49.752;6.094;2023-03-05T02:04:51;6.00;99.90
13848;DHT22;6994;49.752;6.094;2023-03-05T02:07:17;5.90;99.90
13848;DHT22;6994;49.752;6.094;2023-03-05T02:09:44;5.80;99.90
13848;DHT22;6994;49.752;6.094;2023-03-05T02:12:12;5.70;99.90
13848;DHT22;6994;49.752;6.094;2023-03-05T02:14:39;5.60;99.90
13848;DHT22;6994;49.752;6.094;2023-03-05T02:17:06;5.50;99.90
13848;DHT22;6994;49.752;6.094;2023-03-05T02:19:55;5.70;99.90
13848;DHT22;6994;49.752;6.094;2023-03-05T02:22:22;5.70;99.90
13848;DHT22;6994;49.752;6.094;2023-03-05T02:24:49;5.60;99.90
13848;DHT22;6994;49.752;6.094;2023-03-05T02:27:16;5.60;99.90
13848;DHT22;6994;49.752;6.094;2023-03-05T02:29:44;5.50;99.90
13848;DHT22;6994;49.752;6.094;2023-03-05T02:32:11;5.50;99.90
13848;DHT22;6994;49.752;6.094;2023-03-05T02:34:37;5.40;99.90
13848;DHT22;6994;49.752;6.094;2023-03-05T02:37:05;5.30;99.90
13848;DHT22;6994;49.752;6.094;2023-03-05T02:39:32;5.30;99.90
13848;DHT22;6994;49.752;6.094;2023-03-05T02:41:59;5.30;99.90
13848;DHT22;6994;49.752;6.094;2023-03-05T02:44:26;5.20;99.90
13848;DHT22;6994;49.752;6.094;2023-03-05T02:46:53;5.20;99.90
13848;DHT22;6994;49.752;6.094;2023-03-05T02:49:21;5.20;99.90
13848;DHT22;6994;49.752;6.094;2023-03-05T02:51:48;5.10;99.90
13848;DHT22;6994;49.752;6.094;2023-03-05T02:54:16;5.10;99.90
13848;DHT22;6994;49.752;6.094;2023-03-05T02:56:44;5.10;99.90
13848;DHT22;6994;49.752;6.094;2023-03-05T02:59:11;5.10;99.90
13848;DHT22;6994;49.752;6.094;2023-03-05T03:01:38;5.10;99.90
13848;DHT22;6994;49.752;6.094;2023-03-05T03:04:05;5.10;99.90
13848;DHT22;6994;49.752;6.094;2023-03-05T03:06:33;5.10;99.90
13848;DHT22;6994;49.752;6.094;2023-03-05T03:09:00;5.00;99.90
13848;DHT22;6994;49.752;6.094;2023-03-05T03:11:27;5.00;99.90
13848;DHT22;6994;49.752;6.094;2023-03-05T03:13:54;4.90;99.90
13848;DHT22;6994;49.752;6.094;2023-03-05T03:16:21;5.10;99.90
13848;DHT22;6994;49.752;6.094;2023-03-05T03:18:49;5.20;99.90
13848;DHT22;6994;49.752;6.094;2023-03-05T03:21:18;5.10;99.90
13848;DHT22;6994;49.752;6.094;2023-03-05T03:23:45;5.00;99.90
13848;DHT22;6994;49.752;6.094;2023-03-05T03:26:12;5.00;99.90
13848;DHT22;6994;49.752;6.094;2023-03-05T03:28:39;5.00;99.90
13848;DHT22;6994;49.752;6.094;2023-03-05T03:31:06;4.90;99.90
13848;DHT22;6994;49.752;6.094;2023-03-05T03:33:33;5.10;99.90
13848;DHT22;6994;49.752;6.094;2023-03-05T03:36:04;5.20;99.90
13848;DHT22;6994;49.752;6.094;2023-03-05T03:38:30;5.40;99.90
13848;DHT22;6994;49.752;6.094;2023-03-05T03:40:58;5.40;99.90
13848;DHT22;6994;49.752;6.094;2023-03-05T03:43:25;5.30;99.90
13848;DHT22;6994;49.752;6.094;2023-03-05T03:45:52;5.50;99.90
13848;DHT22;6994;49.752;6.094;2023-03-05T03:48:19;5.40;99.90
13848;DHT22;6994;49.752;6.094;2023-03-05T03:50:47;5.30;99.90
13848;DHT22;6994;49.752;6.094;2023-03-05T03:53:14;5.20;99.90
13848;DHT22;6994;49.752;6.094;2023-03-05T03:55:42;5.20;99.90
13848;DHT22;6994;49.752;6.094;2023-03-05T03:58:10;5.00;99.90
13848;DHT22;6994;49.752;6.094;2023-03-05T04:00:37;5.00;99.90
13848;DHT22;6994;49.752;6.094;2023-03-05T04:03:04;4.90;99.90
13848;DHT22;6994;49.752;6.094;2023-03-05T04:05:31;4.90;99.90
13848;DHT22;6994;49.752;6.094;2023-03-05T04:07:58;4.80;99.90
13848;DHT22;6994;49.752;6.094;2023-03-05T04:10:26;4.80;99.90
13848;DHT22;6994;49.752;6.094;2023-03-05T04:12:53;5.00;99.90
13848;DHT22;6994;49.752;6.094;2023-03-05T04:15:20;5.00;99.90
13848;DHT22;6994;49.752;6.094;2023-03-05T04:17:47;5.00;99.90
13848;DHT22;6994;49.752;6.094;2023-03-05T04:20:14;4.90;99.90
13848;DHT22;6994;49.752;6.094;2023-03-05T04:22:42;4.80;99.90
13848;DHT22;6994;49.752;6.094;2023-03-05T04:25:09;4.80;99.90
13848;DHT22;6994;49.752;6.094;2023-03-05T04:27:36;4.70;99.90
13848;DHT22;6994;49.752;6.094;2023-03-05T04:30:05;4.70;99.90
13848;DHT22;6994;49.752;6.094;2023-03-05T04:32:31;4.70;99.90
13848;DHT22;6994;49.752;6.094;2023-03-05T04:34:59;4.70;99.90
13848;DHT22;6994;49.752;6.094;2023-03-05T04:37:27;4.60;99.90
13848;DHT22;6994;49.752;6.094;2023-03-05T04:39:54;4.60;99.90
13848;DHT22;6994;49.752;6.094;2023-03-05T04:42:21;4.60;99.90
13848;DHT22;6994;49.752;6.094;2023-03-05T04:44:49;4.60;99.90
13848;DHT22;6994;49.752;6.094;2023-03-05T04:47:16;4.60;99.90
13848;DHT22;6994;49.752;6.094;2023-03-05T04:49:43;4.60;99.90
13848;DHT22;6994;49.752;6.094;2023-03-05T04:52:11;4.60;99.90
13848;DHT22;6994;49.752;6.094;2023-03-05T04:54:38;4.60;99.90
13848;DHT22;6994;49.752;6.094;2023-03-05T04:57:06;4.60;99.90
13848;DHT22;6994;49.752;6.094;2023-03-05T04:59:35;4.60;99.90
13848;DHT22;6994;49.752;6.094;2023-03-05T05:02:01;4.60;99.90
13848;DHT22;6994;49.752;6.094;2023-03-05T05:04:28;4.60;99.90
13848;DHT22;6994;49.752;6.094;2023-03-05T05:06:55;4.60;99.90
13848;DHT22;6994;49.752;6.094;2023-03-05T05:09:23;4.80;99.90
13848;DHT22;6994;49.752;6.094;2023-03-05T05:11:50;4.90;99.90
13848;DHT22;6994;49.752;6.094;2023-03-05T05:14:17;4.90;99.90
13848;DHT22;6994;49.752;6.094;2023-03-05T05:16:44;4.90;99.90
13848;DHT22;6994;49.752;6.094;2023-03-05T05:19:11;5.00;99.90
13848;DHT22;6994;49.752;6.094;2023-03-05T05:21:39;5.10;99.90
13848;DHT22;6994;49.752;6.094;2023-03-05T05:24:06;5.10;99.90
13848;DHT22;6994;49.752;6.094;2023-03-05T05:26:33;5.00;99.90
13848;DHT22;6994;49.752;6.094;2023-03-05T05:29:00;4.90;99.90
13848;DHT22;6994;49.752;6.094;2023-03-05T05:31:27;5.10;99.90
13848;DHT22;6994;49.752;6.094;2023-03-05T05:33:54;5.10;99.90
13848;DHT22;6994;49.752;6.094;2023-03-05T05:36:22;5.00;99.90
13848;DHT22;6994;49.752;6.094;2023-03-05T05:38:49;5.20;99.90
13848;DHT22;6994;49.752;6.094;2023-03-05T05:41:16;5.20;99.90
13848;DHT22;6994;49.752;6.094;2023-03-05T05:43:43;5.30;99.90
13848;DHT22;6994;49.752;6.094;2023-03-05T05:46:12;5.30;99.90
13848;DHT22;6994;49.752;6.094;2023-03-05T05:48:38;5.20;99.90
13848;DHT22;6994;49.752;6.094;2023-03-05T05:51:05;5.10;99.90
13848;DHT22;6994;49.752;6.094;2023-03-05T05:53:32;4.90;99.90
13848;DHT22;6994;49.752;6.094;2023-03-05T05:55:59;4.90;99.90
13848;DHT22;6994;49.752;6.094;2023-03-05T05:58:27;4.80;99.90
13848;DHT22;6994;49.752;6.094;2023-03-05T06:00:54;4.70;99.90
13848;DHT22;6994;49.752;6.094;2023-03-05T06:03:21;4.60;99.90
13848;DHT22;6994;49.752;6.094;2023-03-05T06:05:48;4.60;99.90
13848;DHT22;6994;49.752;6.094;2023-03-05T06:08:15;4.60;99.90
13848;DHT22;6994;49.752;6.094;2023-03-05T06:10:43;4.50;99.90
13848;DHT22;6994;49.752;6.094;2023-03-05T06:13:10;4.50;99.90
13848;DHT22;6994;49.752;6.094;2023-03-05T06:15:38;4.50;99.90
13848;DHT22;6994;49.752;6.094;2023-03-05T06:18:06;4.40;99.90
13848;DHT22;6994;49.752;6.094;2023-03-05T06:20:33;4.40;99.90
13848;DHT22;6994;49.752;6.094;2023-03-05T06:23:01;4.40;99.90
13848;DHT22;6994;49.752;6.094;2023-03-05T06:25:29;4.40;99.90
13848;DHT22;6994;49.752;6.094;2023-03-05T06:27:57;4.40;99.90
13848;DHT22;6994;49.752;6.094;2023-03-05T06:30:25;4.40;99.90
13848;DHT22;6994;49.752;6.094;2023-03-05T06:32:53;4.30;99.90
13848;DHT22;6994;49.752;6.094;2023-03-05T06:35:20;4.30;99.90
13848;DHT22;6994;49.752;6.094;2023-03-05T06:37:47;4.30;99.90
13848;DHT22;6994;49.752;6.094;2023-03-05T06:40:15;4.30;99.90
13848;DHT22;6994;49.752;6.094;2023-03-05T06:42:43;4.30;99.90
13848;DHT22;6994;49.752;6.094;2023-03-05T06:45:10;4.30;99.90
13848;DHT22;6994;49.752;6.094;2023-03-05T06:47:37;4.40;99.90
13848;DHT22;6994;49.752;6.094;2023-03-05T06:50:05;4.40;99.90
13848;DHT22;6994;49.752;6.094;2023-03-05T06:52:33;4.40;99.90
13848;DHT22;6994;49.752;6.094;2023-03-05T06:55:02;4.40;99.90
13848;DHT22;6994;49.752;6.094;2023-03-05T06:57:29;4.40;99.90
13848;DHT22;6994;49.752;6.094;2023-03-05T06:59:57;4.40;99.90
13848;DHT22;6994;49.752;6.094;2023-03-05T07:02:25;4.50;99.90
13848;DHT22;6994;49.752;6.094;2023-03-05T07:04:53;4.40;99.90
13848;DHT22;6994;49.752;6.094;2023-03-05T07:07:21;4.50;99.90
13848;DHT22;6994;49.752;6.094;2023-03-05T07:09:49;4.50;99.90
13848;DHT22;6994;49.752;6.094;2023-03-05T07:12:16;4.50;99.90
13848;DHT22;6994;49.752;6.094;2023-03-05T07:14:44;4.50;99.90
13848;DHT22;6994;49.752;6.094;2023-03-05T07:17:12;4.60;99.90
13848;DHT22;6994;49.752;6.094;2023-03-05T07:19:40;4.60;99.90
13848;DHT22;6994;49.752;6.094;2023-03-05T07:22:08;4.60;99.90
13848;DHT22;6994;49.752;6.094;2023-03-05T07:24:35;4.60;99.90
13848;DHT22;6994;49.752;6.094;2023-03-05T07:27:02;4.70;99.90
13848;DHT22;6994;49.752;6.094;2023-03-05T07:29:29;4.70;99.90
13848;DHT22;6994;49.752;6.094;2023-03-05T07:31:56;5.00;99.90
13848;DHT22;6994;49.752;6.094;2023-03-05T07:34:23;5.10;99.90
13848;DHT22;6994;49.752;6.094;2023-03-05T07:36:51;5.10;99.90
13848;DHT22;6994;49.752;6.094;2023-03-05T07:39:18;5.10;99.90
13848;DHT22;6994;49.752;6.094;2023-03-05T07:41:45;5.10;99.90
13848;DHT22;6994;49.752;6.094;2023-03-05T07:44:12;5.00;99.90
13848;DHT22;6994;49.752;6.094;2023-03-05T07:46:40;5.30;99.90
13848;DHT22;6994;49.752;6.094;2023-03-05T07:49:07;5.40;99.90
13848;DHT22;6994;49.752;6.094;2023-03-05T07:51:34;5.40;99.90
13848;DHT22;6994;49.752;6.094;2023-03-05T07:54:01;5.40;99.90
13848;DHT22;6994;49.752;6.094;2023-03-05T07:56:29;5.40;99.90
13848;DHT22;6994;49.752;6.094;2023-03-05T07:59:00;5.40;99.90
13848;DHT22;6994;49.752;6.094;2023-03-05T08:01:23;5.60;99.90
13848;DHT22;6994;49.752;6.094;2023-03-05T08:03:50;5.70;99.90
13848;DHT22;6994;49.752;6.094;2023-03-05T08:06:17;5.70;99.90
13848;DHT22;6994;49.752;6.094;2023-03-05T08:08:44;5.70;99.90
13848;DHT22;6994;49.752;6.094;2023-03-05T08:11:12;5.90;99.90
13848;DHT22;6994;49.752;6.094;2023-03-05T08:13:39;6.00;99.90
13848;DHT22;6994;49.752;6.094;2023-03-05T08:16:07;6.20;99.90
13848;DHT22;6994;49.752;6.094;2023-03-05T08:18:33;6.20;99.90
13848;DHT22;6994;49.752;6.094;2023-03-05T08:21:01;6.10;99.90
13848;DHT22;6994;49.752;6.094;2023-03-05T08:23:28;6.00;99.90
13848;DHT22;6994;49.752;6.094;2023-03-05T08:25:56;6.00;99.90
13848;DHT22;6994;49.752;6.094;2023-03-05T08:28:23;5.90;99.90
13848;DHT22;6994;49.752;6.094;2023-03-05T08:30:51;5.90;99.90
13848;DHT22;6994;49.752;6.094;2023-03-05T08:33:18;5.90;99.90
13848;DHT22;6994;49.752;6.094;2023-03-05T08:35:45;5.90;99.90
13848;DHT22;6994;49.752;6.094;2023-03-05T08:38:12;5.90;99.90
13848;DHT22;6994;49.752;6.094;2023-03-05T08:40:39;5.90;99.90
13848;DHT22;6994;49.752;6.094;2023-03-05T08:43:07;5.90;99.90
13848;DHT22;6994;49.752;6.094;2023-03-05T08:45:34;5.90;99.90
13848;DHT22;6994;49.752;6.094;2023-03-05T08:48:01;5.90;99.90
13848;DHT22;6994;49.752;6.094;2023-03-05T08:50:28;5.90;99.90
13848;DHT22;6994;49.752;6.094;2023-03-05T08:52:55;6.10;99.90
13848;DHT22;6994;49.752;6.094;2023-03-05T08:55:23;6.10;99.90
13848;DHT22;6994;49.752;6.094;2023-03-05T08:57:50;6.20;99.90
13848;DHT22;6994;49.752;6.094;2023-03-05T09:00:17;6.10;99.90
13848;DHT22;6994;49.752;6.094;2023-03-05T09:02:44;6.10;99.90
13848;DHT22;6994;49.752;6.094;2023-03-05T09:05:12;6.10;99.90
13848;DHT22;6994;49.752;6.094;2023-03-05T09:07:39;6.10;99.90
13848;DHT22;6994;49.752;6.094;2023-03-05T09:10:06;6.10;99.90
13848;DHT22;6994;49.752;6.094;2023-03-05T09:12:34;6.50;99.90
13848;DHT22;6994;49.752;6.094;2023-03-05T09:15:01;6.50;99.90
13848;DHT22;6994;49.752;6.094;2023-03-05T09:17:28;6.50;99.90
13848;DHT22;6994;49.752;6.094;2023-03-05T09:19:56;6.60;99.90
13848;DHT22;6994;49.752;6.094;2023-03-05T09:22:24;6.50;99.90
13848;DHT22;6994;49.752;6.094;2023-03-05T09:24:51;6.50;99.90
13848;DHT22;6994;49.752;6.094;2023-03-05T09:27:19;6.60;99.90
13848;DHT22;6994;49.752;6.094;2023-03-05T09:29:46;6.60;99.90
13848;DHT22;6994;49.752;6.094;2023-03-05T09:32:13;6.60;99.90
13848;DHT22;6994;49.752;6.094;2023-03-05T09:34:40;6.60;99.90
13848;DHT22;6994;49.752;6.094;2023-03-05T09:37:08;6.70;99.90
13848;DHT22;6994;49.752;6.094;2023-03-05T09:39:36;6.70;99.90
13848;DHT22;6994;49.752;6.094;2023-03-05T09:44:36;6.60;99.90
13848;DHT22;6994;49.752;6.094;2023-03-05T09:47:12;6.60;99.90
13848;DHT22;6994;49.752;6.094;2023-03-05T09:52:45;6.80;99.90
13848;DHT22;6994;49.752;6.094;2023-03-05T09:55:28;6.90;99.90
13848;DHT22;6994;49.752;6.094;2023-03-05T09:57:55;6.90;99.90
13848;DHT22;6994;49.752;6.094;2023-03-05T10:02:52;6.90;99.90
13848;DHT22;6994;49.752;6.094;2023-03-05T10:05:28;6.90;99.90
13848;DHT22;6994;49.752;6.094;2023-03-05T10:07:58;6.90;99.90
13848;DHT22;6994;49.752;6.094;2023-03-05T10:10:32;7.00;99.90
13848;DHT22;6994;49.752;6.094;2023-03-05T10:12:58;7.10;99.90
13848;DHT22;6994;49.752;6.094;2023-03-05T10:15:25;7.30;99.90
13848;DHT22;6994;49.752;6.094;2023-03-05T10:17:55;7.20;99.90
13848;DHT22;6994;49.752;6.094;2023-03-05T10:23:10;7.50;99.90
13848;DHT22;6994;49.752;6.094;2023-03-05T10:25:50;7.60;99.90
13848;DHT22;6994;49.752;6.094;2023-03-05T10:28:14;7.50;99.90
13848;DHT22;6994;49.752;6.094;2023-03-05T10:33:11;7.40;99.90
13848;DHT22;6994;49.752;6.094;2023-03-05T10:40:51;7.80;99.90
13848;DHT22;6994;49.752;6.094;2023-03-05T10:46:03;8.10;99.90
13848;DHT22;6994;49.752;6.094;2023-03-05T10:48:34;8.20;99.90
13848;DHT22;6994;49.752;6.094;2023-03-05T10:51:04;8.10;99.90
13848;DHT22;6994;49.752;6.094;2023-03-05T10:56:03;8.00;99.90
13848;DHT22;6994;49.752;6.094;2023-03-05T10:58:30;8.20;99.90
13848;DHT22;6994;49.752;6.094;2023-03-05T11:01:02;8.20;99.90
13848;DHT22;6994;49.752;6.094;2023-03-05T11:03:56;8.00;99.90
13848;DHT22;6994;49.752;6.094;2023-03-05T11:06:29;7.90;99.90
13848;DHT22;6994;49.752;6.094;2023-03-05T11:08:57;7.80;99.90
13848;DHT22;6994;49.752;6.094;2023-03-05T11:11:22;7.70;99.90
13848;DHT22;6994;49.752;6.094;2023-03-05T11:13:59;7.50;99.90
13848;DHT22;6994;49.752;6.094;2023-03-05T11:16:26;7.50;99.90
13848;DHT22;6994;49.752;6.094;2023-03-05T11:21:46;7.30;99.90
13848;DHT22;6994;49.752;6.094;2023-03-05T11:24:16;7.30;99.90
13848;DHT22;6994;49.752;6.094;2023-03-05T11:26:52;7.30;99.90
13848;DHT22;6994;49.752;6.094;2023-03-05T11:29:22;7.40;99.90
13848;DHT22;6994;49.752;6.094;2023-03-05T11:31:45;7.40;99.90
13848;DHT22;6994;49.752;6.094;2023-03-05T11:39:20;7.70;99.90
13848;DHT22;6994;49.752;6.094;2023-03-05T11:42:11;7.90;99.90
13848;DHT22;6994;49.752;6.094;2023-03-05T11:44:46;8.50;99.90
13848;DHT22;6994;49.752;6.094;2023-03-05T11:47:17;8.80;99.90
13848;DHT22;6994;49.752;6.094;2023-03-05T11:49:44;9.00;99.80
13848;DHT22;6994;49.752;6.094;2023-03-05T11:57:23;9.20;99.00
13848;DHT22;6994;49.752;6.094;2023-03-05T11:59:50;9.20;99.00
13848;DHT22;6994;49.752;6.094;2023-03-05T12:02:18;9.20;98.50
13848;DHT22;6994;49.752;6.094;2023-03-05T12:04:44;9.20;98.20
13848;DHT22;6994;49.752;6.094;2023-03-05T12:07:12;9.20;98.20
13848;DHT22;6994;49.752;6.094;2023-03-05T12:09:39;9.10;97.60
13848;DHT22;6994;49.752;6.094;2023-03-05T12:12:18;9.00;97.70
13848;DHT22;6994;49.752;6.094;2023-03-05T12:14:47;8.90;97.90
13848;DHT22;6994;49.752;6.094;2023-03-05T12:17:21;8.90;98.20
13848;DHT22;6994;49.752;6.094;2023-03-05T12:19:50;8.90;98.00
13848;DHT22;6994;49.752;6.094;2023-03-05T12:22:19;8.80;97.60
13848;DHT22;6994;49.752;6.094;2023-03-05T12:24:44;8.70;97.70
13848;DHT22;6994;49.752;6.094;2023-03-05T12:27:13;8.60;98.50
13848;DHT22;6994;49.752;6.094;2023-03-05T12:29:51;8.50;98.40
13848;DHT22;6994;49.752;6.094;2023-03-05T12:42:44;8.20;98.90
13848;DHT22;6994;49.752;6.094;2023-03-05T12:55:33;7.70;99.00
13848;DHT22;6994;49.752;6.094;2023-03-05T12:57:59;7.70;99.70
13848;DHT22;6994;49.752;6.094;2023-03-05T13:00:27;7.60;99.10
13848;DHT22;6994;49.752;6.094;2023-03-05T13:02:56;7.50;99.00
13848;DHT22;6994;49.752;6.094;2023-03-05T13:05:30;7.50;99.30
13848;DHT22;6994;49.752;6.094;2023-03-05T13:08:14;7.50;99.50
13848;DHT22;6994;49.752;6.094;2023-03-05T13:10:38;7.70;99.10
13848;DHT22;6994;49.752;6.094;2023-03-05T13:13:05;8.10;98.30
13848;DHT22;6994;49.752;6.094;2023-03-05T13:15:32;8.20;98.70
13848;DHT22;6994;49.752;6.094;2023-03-05T13:18:02;8.10;98.70
13848;DHT22;6994;49.752;6.094;2023-03-05T13:20:37;8.00;98.80
13848;DHT22;6994;49.752;6.094;2023-03-05T13:23:04;8.00;98.80
13848;DHT22;6994;49.752;6.094;2023-03-05T13:25:30;7.90;98.60
13848;DHT22;6994;49.752;6.094;2023-03-05T13:28:10;8.00;98.30
13848;DHT22;6994;49.752;6.094;2023-03-05T13:30:34;8.00;98.80
13848;DHT22;6994;49.752;6.094;2023-03-05T13:33:01;7.90;98.80
13848;DHT22;6994;49.752;6.094;2023-03-05T13:35:31;7.80;98.80
13848;DHT22;6994;49.752;6.094;2023-03-05T13:37:58;7.70;99.10
13848;DHT22;6994;49.752;6.094;2023-03-05T13:40:26;7.60;99.10
13848;DHT22;6994;49.752;6.094;2023-03-05T13:42:52;7.50;99.30
13848;DHT22;6994;49.752;6.094;2023-03-05T13:45:24;7.50;99.50
13848;DHT22;6994;49.752;6.094;2023-03-05T13:47:56;7.50;99.60
13848;DHT22;6994;49.752;6.094;2023-03-05T13:50:24;7.60;99.90
13848;DHT22;6994;49.752;6.094;2023-03-05T13:52:50;7.60;99.90
13848;DHT22;6994;49.752;6.094;2023-03-05T13:55:17;7.80;99.90
13848;DHT22;6994;49.752;6.094;2023-03-05T13:57:48;7.90;99.80
13848;DHT22;6994;49.752;6.094;2023-03-05T14:00:34;8.00;99.60
13848;DHT22;6994;49.752;6.094;2023-03-05T14:03:15;8.00;99.10
13848;DHT22;6994;49.752;6.094;2023-03-05T14:05:27;8.10;99.30
13848;DHT22;6994;49.752;6.094;2023-03-05T14:07:54;8.10;99.40
13848;DHT22;6994;49.752;6.094;2023-03-05T14:10:35;8.10;99.20
13848;DHT22;6994;49.752;6.094;2023-03-05T14:13:02;8.10;99.20
13848;DHT22;6994;49.752;6.094;2023-03-05T14:15:29;8.20;99.30
13848;DHT22;6994;49.752;6.094;2023-03-05T14:20:39;8.20;99.40
13848;DHT22;6994;49.752;6.094;2023-03-05T14:23:24;8.20;99.20
13848;DHT22;6994;49.752;6.094;2023-03-05T14:25:51;8.30;99.40
13848;DHT22;6994;49.752;6.094;2023-03-05T14:28:20;8.30;99.40
13848;DHT22;6994;49.752;6.094;2023-03-05T14:30:50;8.40;99.10
13848;DHT22;6994;49.752;6.094;2023-03-05T14:33:13;8.50;99.30
13848;DHT22;6994;49.752;6.094;2023-03-05T14:35:40;8.50;99.10
13848;DHT22;6994;49.752;6.094;2023-03-05T14:38:14;8.50;99.10
13848;DHT22;6994;49.752;6.094;2023-03-05T14:40:35;8.50;98.90
13848;DHT22;6994;49.752;6.094;2023-03-05T14:43:03;8.50;99.00
13848;DHT22;6994;49.752;6.094;2023-03-05T14:45:36;8.50;99.10
13848;DHT22;6994;49.752;6.094;2023-03-05T14:48:03;8.40;99.20
13848;DHT22;6994;49.752;6.094;2023-03-05T14:50:31;8.40;99.00
13848;DHT22;6994;49.752;6.094;2023-03-05T14:52:57;8.30;99.10
13848;DHT22;6994;49.752;6.094;2023-03-05T14:55:25;8.20;99.20
13848;DHT22;6994;49.752;6.094;2023-03-05T14:57:51;8.10;99.50
13848;DHT22;6994;49.752;6.094;2023-03-05T15:00:20;8.10;99.70
13848;DHT22;6994;49.752;6.094;2023-03-05T15:02:45;8.00;99.70
13848;DHT22;6994;49.752;6.094;2023-03-05T15:05:13;8.00;99.60
13848;DHT22;6994;49.752;6.094;2023-03-05T15:07:40;7.90;99.60
13848;DHT22;6994;49.752;6.094;2023-03-05T15:10:08;8.10;99.30
13848;DHT22;6994;49.752;6.094;2023-03-05T15:12:35;8.10;99.30
13848;DHT22;6994;49.752;6.094;2023-03-05T15:15:02;8.10;99.20
13848;DHT22;6994;49.752;6.094;2023-03-05T15:17:33;8.10;99.10
13848;DHT22;6994;49.752;6.094;2023-03-05T15:19:59;8.40;98.90
13848;DHT22;6994;49.752;6.094;2023-03-05T15:22:26;8.40;99.00
13848;DHT22;6994;49.752;6.094;2023-03-05T15:24:54;8.60;98.80
13848;DHT22;6994;49.752;6.094;2023-03-05T15:27:21;8.70;98.90
13848;DHT22;6994;49.752;6.094;2023-03-05T15:29:48;8.60;98.80
13848;DHT22;6994;49.752;6.094;2023-03-05T15:32:15;8.50;99.10
13848;DHT22;6994;49.752;6.094;2023-03-05T15:34:42;8.40;98.90
13848;DHT22;6994;49.752;6.094;2023-03-05T15:37:10;8.30;99.10
13848;DHT22;6994;49.752;6.094;2023-03-05T15:39:37;8.20;99.00
13848;DHT22;6994;49.752;6.094;2023-03-05T15:42:04;8.10;99.10
13848;DHT22;6994;49.752;6.094;2023-03-05T15:44:31;8.00;99.10
13848;DHT22;6994;49.752;6.094;2023-03-05T15:46:58;7.90;99.20
13848;DHT22;6994;49.752;6.094;2023-03-05T15:49:26;7.90;99.40
13848;DHT22;6994;49.752;6.094;2023-03-05T15:51:53;7.80;99.50
13848;DHT22;6994;49.752;6.094;2023-03-05T15:54:20;7.70;99.80
13848;DHT22;6994;49.752;6.094;2023-03-05T15:56:47;7.70;99.70
13848;DHT22;6994;49.752;6.094;2023-03-05T15:59:14;7.60;99.70
13848;DHT22;6994;49.752;6.094;2023-03-05T16:01:48;7.50;99.70
13848;DHT22;6994;49.752;6.094;2023-03-05T16:04:15;7.50;99.70
13848;DHT22;6994;49.752;6.094;2023-03-05T16:06:42;7.60;99.60
13848;DHT22;6994;49.752;6.094;2023-03-05T16:09:09;7.90;99.20
13848;DHT22;6994;49.752;6.094;2023-03-05T16:11:36;8.10;99.00
13848;DHT22;6994;49.752;6.094;2023-03-05T16:14:04;8.00;99.00
13848;DHT22;6994;49.752;6.094;2023-03-05T16:16:31;7.80;99.10
13848;DHT22;6994;49.752;6.094;2023-03-05T16:18:57;7.70;99.40
13848;DHT22;6994;49.752;6.094;2023-03-05T16:21:25;7.80;99.60
13848;DHT22;6994;49.752;6.094;2023-03-05T16:23:52;7.70;99.60
13848;DHT22;6994;49.752;6.094;2023-03-05T16:26:19;7.60;99.80
13848;DHT22;6994;49.752;6.094;2023-03-05T16:28:46;7.40;99.80
13848;DHT22;6994;49.752;6.094;2023-03-05T16:31:13;7.30;99.90
13848;DHT22;6994;49.752;6.094;2023-03-05T16:33:41;7.20;99.90
13848;DHT22;6994;49.752;6.094;2023-03-05T16:36:19;7.40;99.90
13848;DHT22;6994;49.752;6.094;2023-03-05T16:38:44;7.40;99.90
13848;DHT22;6994;49.752;6.094;2023-03-05T16:41:13;7.50;99.90
13848;DHT22;6994;49.752;6.094;2023-03-05T16:43:39;7.30;99.90
13848;DHT22;6994;49.752;6.094;2023-03-05T16:46:07;7.30;99.90
13848;DHT22;6994;49.752;6.094;2023-03-05T16:48:34;7.20;99.90
13848;DHT22;6994;49.752;6.094;2023-03-05T16:51:01;7.30;99.90
13848;DHT22;6994;49.752;6.094;2023-03-05T16:53:28;7.20;99.90
13848;DHT22;6994;49.752;6.094;2023-03-05T16:55:55;7.10;99.90
13848;DHT22;6994;49.752;6.094;2023-03-05T16:58:23;7.00;99.90
13848;DHT22;6994;49.752;6.094;2023-03-05T17:00:50;6.90;99.90
13848;DHT22;6994;49.752;6.094;2023-03-05T17:03:17;6.80;99.90
13848;DHT22;6994;49.752;6.094;2023-03-05T17:05:44;6.80;99.90
13848;DHT22;6994;49.752;6.094;2023-03-05T17:08:11;6.70;99.90